createdAt,value
2017-11-05T00:01:38.467Z,3.15
2017-11-05T00:04:10.501Z,3.10
2017-11-05T00:06:42.854Z,3.30
2017-11-05T00:09:13.824Z,3.10
2017-11-05T00:11:46.055Z,3.40
2017-11-05T00:14:17.554Z,2.80
2017-11-05T00:16:48.676Z,3.10
2017-11-05T00:19:20.500Z,3.30
2017-11-05T00:21:51.755Z,3.58
2017-11-05T00:24:23.087Z,3.37
2017-11-05T00:26:54.578Z,3.30
2017-11-05T00:29:26.162Z,2.70
2017-11-05T00:31:57.172Z,3.03
2017-11-05T00:34:28.651Z,3.30
2017-11-05T00:36:59.862Z,3.42
2017-11-05T00:39:32.345Z,3.10
2017-11-05T00:42:03.767Z,3.80
2017-11-05T00:44:35.294Z,3.20
2017-11-05T00:47:07.272Z,3.00
2017-11-05T00:49:39.095Z,3.30
2017-11-05T00:52:10.602Z,3.20
2017-11-05T00:54:43.011Z,3.00
2017-11-05T00:57:15.646Z,3.30
2017-11-05T00:59:47.244Z,3.25
2017-11-05T01:02:18.086Z,3.03
2017-11-05T01:04:49.849Z,3.00
2017-11-05T01:07:21.063Z,3.40
2017-11-05T01:09:53.141Z,2.92
2017-11-05T01:12:24.999Z,3.20
2017-11-05T01:14:55.805Z,3.20
2017-11-05T01:17:26.837Z,3.20
2017-11-05T01:19:58.016Z,3.17
2017-11-05T01:24:56.806Z,3.10
2017-11-05T01:27:28.548Z,3.10
2017-11-05T01:30:00.452Z,2.97
2017-11-05T01:32:31.412Z,3.37
2017-11-05T01:35:02.673Z,3.30
2017-11-05T01:37:33.422Z,3.20
2017-11-05T01:40:04.405Z,3.30
2017-11-05T01:42:36.001Z,3.00
2017-11-05T01:45:07.840Z,3.00
2017-11-05T01:47:40.543Z,2.40
2017-11-05T01:50:11.448Z,3.40
2017-11-05T01:52:47.830Z,3.10
2017-11-05T01:55:19.754Z,3.35
2017-11-05T01:57:51.137Z,3.20
2017-11-05T02:00:24.203Z,2.90
2017-11-05T02:02:56.927Z,3.42
2017-11-05T02:05:28.950Z,3.12
2017-11-05T02:08:01.409Z,3.50
2017-11-05T02:10:33.109Z,2.75
2017-11-05T02:13:04.775Z,2.90
2017-11-05T02:15:36.408Z,3.03
2017-11-05T02:18:09.177Z,2.80
2017-11-05T02:20:40.984Z,3.50
2017-11-05T02:23:14.240Z,2.72
2017-11-05T02:25:45.336Z,3.10
2017-11-05T02:28:16.061Z,3.40
2017-11-05T02:30:47.790Z,3.40
2017-11-05T02:33:18.964Z,2.90
2017-11-05T02:35:50.635Z,2.92
2017-11-05T02:38:22.358Z,3.30
2017-11-05T02:40:53.495Z,3.17
2017-11-05T02:43:25.071Z,2.80
2017-11-05T02:45:56.346Z,3.35
2017-11-05T02:48:28.033Z,2.95
2017-11-05T02:51:00.303Z,3.03
2017-11-05T02:53:31.767Z,3.43
2017-11-05T02:56:04.302Z,3.30
2017-11-05T02:58:41.996Z,3.00
2017-11-05T03:01:14.865Z,3.00
2017-11-05T03:03:46.572Z,3.12
2017-11-05T03:06:17.680Z,2.70
2017-11-05T03:08:48.792Z,3.10
2017-11-05T03:11:19.951Z,2.78
2017-11-05T03:13:51.825Z,3.00
2017-11-05T03:16:23.610Z,2.95
2017-11-05T03:18:54.510Z,3.15
2017-11-05T03:23:11.000Z,3.50
2017-11-05T03:25:42.430Z,3.30
2017-11-05T03:28:15.381Z,3.50
2017-11-05T03:30:47.212Z,3.30
2017-11-05T03:33:18.574Z,3.27
2017-11-05T03:35:51.468Z,3.10
2017-11-05T03:38:23.196Z,3.50
2017-11-05T03:40:53.959Z,3.40
2017-11-05T03:43:26.074Z,3.70
2017-11-05T03:45:58.011Z,3.30
2017-11-05T03:48:29.199Z,2.90
2017-11-05T03:51:03.043Z,3.50
2017-11-05T03:53:34.270Z,3.20
2017-11-05T03:56:05.755Z,2.93
2017-11-05T03:58:38.527Z,3.20
2017-11-05T04:01:10.826Z,3.15
2017-11-05T04:03:41.810Z,3.70
2017-11-05T04:06:13.152Z,2.90
2017-11-05T04:08:45.568Z,3.70
2017-11-05T04:11:17.016Z,3.58
2017-11-05T04:13:48.394Z,3.27
2017-11-05T04:16:19.674Z,3.40
2017-11-05T04:18:51.462Z,3.00
2017-11-05T04:21:22.841Z,3.47
2017-11-05T04:23:54.702Z,3.50
2017-11-05T04:26:26.852Z,3.40
2017-11-05T04:28:59.097Z,3.30
2017-11-05T04:31:31.044Z,3.50
2017-11-05T04:34:02.603Z,3.40
2017-11-05T04:36:35.614Z,3.00
2017-11-05T04:39:07.698Z,3.70
2017-11-05T04:41:38.761Z,3.25
2017-11-05T04:44:09.648Z,3.50
2017-11-05T04:46:42.249Z,3.40
2017-11-05T04:49:15.877Z,3.00
2017-11-05T04:51:47.980Z,3.10
2017-11-05T04:54:19.665Z,3.60
2017-11-05T04:56:52.063Z,3.40
2017-11-05T04:59:25.112Z,3.30
2017-11-05T05:01:57.129Z,2.90
2017-11-05T05:04:30.612Z,2.80
2017-11-05T05:07:02.295Z,2.85
2017-11-05T05:09:34.188Z,3.00
2017-11-05T05:12:06.273Z,3.23
2017-11-05T05:14:37.035Z,2.62
2017-11-05T05:17:08.288Z,2.80
2017-11-05T05:19:40.338Z,2.78
2017-11-05T05:22:12.243Z,2.80
2017-11-05T05:24:43.471Z,2.78
2017-11-05T05:27:14.504Z,2.80
2017-11-05T05:29:45.493Z,3.15
2017-11-05T05:32:16.424Z,3.12
2017-11-05T05:34:48.766Z,3.00
2017-11-05T05:37:21.302Z,3.20
2017-11-05T05:39:53.408Z,3.15
2017-11-05T05:42:25.970Z,2.90
2017-11-05T05:44:57.827Z,2.70
2017-11-05T05:47:31.518Z,2.60
2017-11-05T05:50:02.599Z,2.50
2017-11-05T05:52:33.498Z,3.05
2017-11-05T05:55:05.255Z,2.70
2017-11-05T05:57:36.825Z,2.90
2017-11-05T06:00:08.539Z,3.75
2017-11-05T06:02:39.362Z,3.05
2017-11-05T06:05:11.075Z,2.72
2017-11-05T06:07:43.280Z,2.65
2017-11-05T06:10:15.005Z,2.50
2017-11-05T06:12:46.818Z,2.80
2017-11-05T06:15:18.556Z,2.50
2017-11-05T06:17:50.376Z,2.60
2017-11-05T06:20:21.811Z,3.00
2017-11-05T06:22:54.118Z,2.80
2017-11-05T06:25:25.682Z,3.23
2017-11-05T06:27:57.030Z,3.30
2017-11-05T06:30:28.884Z,2.60
2017-11-05T06:33:00.699Z,2.75
2017-11-05T06:35:32.512Z,2.70
2017-11-05T06:38:04.674Z,2.90
2017-11-05T06:40:36.415Z,3.10
2017-11-05T06:43:09.663Z,2.53
2017-11-05T06:45:41.716Z,2.90
2017-11-05T06:48:13.268Z,2.97
2017-11-05T06:50:45.913Z,2.70
2017-11-05T06:53:20.057Z,2.50
2017-11-05T06:55:51.898Z,2.90
2017-11-05T06:58:22.964Z,3.15
2017-11-05T07:00:54.517Z,3.30
2017-11-05T07:03:26.313Z,2.83
2017-11-05T07:05:57.408Z,2.75
2017-11-05T07:08:28.636Z,3.00
2017-11-05T07:11:00.223Z,3.25
2017-11-05T07:13:32.173Z,3.42
2017-11-05T07:16:03.651Z,3.33
2017-11-05T07:18:36.149Z,2.50
2017-11-05T07:21:08.234Z,2.83
2017-11-05T07:23:39.798Z,2.90
2017-11-05T07:26:12.423Z,3.20
2017-11-05T07:28:44.413Z,2.70
2017-11-05T07:31:15.762Z,3.15
2017-11-05T07:33:47.941Z,2.70
2017-11-05T07:36:19.059Z,2.90
2017-11-05T07:38:51.380Z,3.00
2017-11-05T07:41:23.297Z,3.10
2017-11-05T07:43:54.814Z,2.53
2017-11-05T07:46:27.402Z,3.03
2017-11-05T07:48:58.957Z,2.87
2017-11-05T07:51:30.601Z,2.50
2017-11-05T07:54:01.867Z,2.83
2017-11-05T07:56:34.430Z,2.92
2017-11-05T07:59:06.096Z,3.20
2017-11-05T08:01:37.265Z,3.12
2017-11-05T08:04:08.487Z,2.70
2017-11-05T08:06:40.972Z,2.30
2017-11-05T08:09:12.734Z,2.70
2017-11-05T08:11:45.431Z,2.60
2017-11-05T08:14:21.100Z,2.75
2017-11-05T08:16:52.614Z,2.90
2017-11-05T08:19:26.465Z,2.90
2017-11-05T08:21:59.979Z,3.05
2017-11-05T08:24:31.150Z,2.60
2017-11-05T08:27:03.525Z,3.00
2017-11-05T08:29:35.154Z,2.85
2017-11-05T08:32:10.594Z,2.90
2017-11-05T08:34:42.276Z,3.65
2017-11-05T08:37:14.398Z,3.37
2017-11-05T08:39:47.122Z,2.97
2017-11-05T08:42:19.224Z,3.30
2017-11-05T08:44:50.889Z,3.78
2017-11-05T08:47:22.290Z,3.60
2017-11-05T08:49:54.690Z,3.60
2017-11-05T08:52:26.931Z,3.28
2017-11-05T08:54:58.146Z,3.73
2017-11-05T08:57:29.774Z,3.05
2017-11-05T09:00:02.601Z,4.00
2017-11-05T09:02:43.502Z,3.00
2017-11-05T09:05:19.401Z,3.33
2017-11-05T09:07:53.227Z,3.50
2017-11-05T09:10:25.632Z,3.10
2017-11-05T09:13:04.490Z,3.42
2017-11-05T09:15:35.513Z,4.07
2017-11-05T09:18:06.415Z,3.58
2017-11-05T09:20:37.243Z,4.37
2017-11-05T09:23:08.447Z,4.10
2017-11-05T09:25:39.520Z,4.20
2017-11-05T09:28:10.573Z,3.30
2017-11-05T09:30:41.506Z,3.50
2017-11-05T09:33:12.869Z,3.47
2017-11-05T09:35:43.849Z,3.50
2017-11-05T09:38:14.838Z,3.20
2017-11-05T09:40:46.063Z,2.95
2017-11-05T09:43:17.109Z,3.78
2017-11-05T09:45:47.902Z,3.95
2017-11-05T09:48:18.960Z,3.78
2017-11-05T09:50:50.181Z,3.50
2017-11-05T09:53:21.178Z,2.90
2017-11-05T09:55:52.982Z,3.00
2017-11-05T09:58:24.846Z,3.50
2017-11-05T10:00:56.092Z,2.62
2017-11-05T10:03:28.072Z,3.40
2017-11-05T10:05:59.160Z,3.70
2017-11-05T10:08:30.198Z,3.73
2017-11-05T10:11:01.412Z,3.97
2017-11-05T10:13:32.440Z,4.30
2017-11-05T10:16:04.199Z,3.67
2017-11-05T10:18:35.133Z,3.25
2017-11-05T10:21:06.112Z,3.30
2017-11-05T10:23:36.830Z,3.05
2017-11-05T10:26:07.649Z,3.50
2017-11-05T10:28:39.322Z,3.55
2017-11-05T10:31:10.585Z,3.53
2017-11-05T10:33:42.240Z,3.80
2017-11-05T10:36:13.278Z,3.90
2017-11-05T10:38:44.521Z,4.10
2017-11-05T10:41:18.103Z,3.40
2017-11-05T10:43:56.942Z,3.90
2017-11-05T10:46:34.021Z,4.10
2017-11-05T10:49:05.875Z,4.30
2017-11-05T10:51:37.184Z,3.70
2017-11-05T10:54:08.969Z,3.65
2017-11-05T10:56:40.981Z,4.00
2017-11-05T10:59:13.436Z,3.80
2017-11-05T11:01:44.462Z,3.83
2017-11-05T11:04:15.663Z,4.32
2017-11-05T11:06:47.199Z,4.95
2017-11-05T11:09:17.868Z,4.65
2017-11-05T11:11:50.230Z,4.80
2017-11-05T11:14:21.602Z,4.47
2017-11-05T11:16:53.982Z,4.90
2017-11-05T11:19:25.288Z,4.90
2017-11-05T11:21:58.496Z,5.50
2017-11-05T11:24:29.822Z,5.30
2017-11-05T11:27:01.052Z,4.87
2017-11-05T11:29:34.498Z,4.53
2017-11-05T11:32:05.495Z,5.35
2017-11-05T11:34:36.460Z,5.50
2017-11-05T11:37:07.636Z,5.40
2017-11-05T11:39:39.875Z,5.50
2017-11-05T11:42:10.870Z,5.10
2017-11-05T11:44:43.341Z,5.90
2017-11-05T11:47:16.264Z,5.20
2017-11-05T11:49:47.359Z,5.43
2017-11-05T11:52:20.549Z,5.57
2017-11-05T11:54:51.497Z,5.50
2017-11-05T11:57:25.378Z,5.60
2017-11-05T11:59:57.256Z,6.07
2017-11-05T12:02:28.491Z,6.90
2017-11-05T12:05:07.720Z,6.93
2017-11-05T12:07:38.767Z,6.97
2017-11-05T12:10:10.037Z,6.20
2017-11-05T12:12:41.458Z,6.43
2017-11-05T12:15:13.237Z,6.23
2017-11-05T12:17:45.039Z,6.55
2017-11-05T12:21:26.905Z,6.87
2017-11-05T12:23:58.997Z,6.93
2017-11-05T12:26:31.610Z,7.10
2017-11-05T12:29:02.637Z,6.80
2017-11-05T12:31:34.522Z,6.60
2017-11-05T12:34:06.341Z,7.57
2017-11-05T12:36:37.226Z,8.10
2017-11-05T12:39:08.794Z,7.05
2017-11-05T12:41:39.804Z,6.93
2017-11-05T12:44:10.946Z,7.20
2017-11-05T12:46:42.110Z,7.60
2017-11-05T12:49:13.228Z,7.73
2017-11-05T12:51:43.999Z,7.78
2017-11-05T12:54:14.939Z,7.57
2017-11-05T12:56:45.931Z,7.40
2017-11-05T12:59:17.028Z,7.70
2017-11-05T13:01:53.352Z,8.30
2017-11-05T13:04:27.049Z,7.62
2017-11-05T13:06:58.415Z,8.65
2017-11-05T13:09:29.585Z,8.30
2017-11-05T13:12:01.529Z,7.90
2017-11-05T13:14:32.914Z,8.32
2017-11-05T13:17:04.009Z,8.57
2017-11-05T13:19:36.027Z,7.62
2017-11-05T13:22:07.851Z,8.00
2017-11-05T13:24:38.964Z,8.50
2017-11-05T13:27:10.072Z,7.97
2017-11-05T13:29:41.154Z,9.10
2017-11-05T13:32:13.133Z,9.13
2017-11-05T13:37:08.270Z,9.07
2017-11-05T13:41:11.120Z,9.00
2017-11-05T13:43:43.639Z,8.93
2017-11-05T13:46:14.928Z,9.50
2017-11-05T13:48:46.527Z,8.93
2017-11-05T13:51:18.100Z,9.75
2017-11-05T13:53:49.222Z,9.50
2017-11-05T13:56:20.332Z,9.05
2017-11-05T13:58:51.348Z,9.40
2017-11-05T14:01:22.619Z,9.37
2017-11-05T14:03:53.699Z,9.52
2017-11-05T14:06:24.646Z,8.80
2017-11-05T14:08:56.056Z,9.50
2017-11-05T14:11:31.234Z,10.38
2017-11-05T14:14:07.298Z,10.27
2017-11-05T14:16:40.181Z,11.38
2017-11-05T14:19:11.726Z,10.50
2017-11-05T14:21:43.579Z,9.40
2017-11-05T14:24:14.392Z,8.95
2017-11-05T14:26:45.985Z,9.10
2017-11-05T14:29:17.631Z,9.93
2017-11-05T14:31:48.774Z,10.60
2017-11-05T14:34:26.258Z,10.30
2017-11-05T14:36:58.326Z,10.90
2017-11-05T14:39:29.997Z,11.67
2017-11-05T14:42:01.083Z,10.63
2017-11-05T14:44:32.507Z,10.80
2017-11-05T14:47:04.548Z,11.18
2017-11-05T14:49:36.014Z,12.33
2017-11-05T14:52:07.980Z,15.70
2017-11-05T14:54:39.029Z,13.05
2017-11-05T14:57:10.098Z,12.10
2017-11-05T14:59:42.050Z,12.25
2017-11-05T15:02:14.021Z,11.00
2017-11-05T15:04:46.178Z,10.88
2017-11-05T15:07:17.091Z,10.27
2017-11-05T15:09:52.716Z,9.40
2017-11-05T15:12:24.695Z,10.20
2017-11-05T15:14:57.027Z,10.48
2017-11-05T15:17:28.382Z,11.12
2017-11-05T15:19:59.600Z,10.63
2017-11-05T15:22:31.111Z,10.50
2017-11-05T15:25:02.847Z,10.50
2017-11-05T15:27:33.919Z,11.00
2017-11-05T15:30:05.146Z,12.27
2017-11-05T15:32:36.480Z,12.65
2017-11-05T15:35:08.488Z,9.05
2017-11-05T15:37:47.092Z,2.95
2017-11-05T15:40:26.653Z,2.00
2017-11-05T15:43:03.812Z,1.67
2017-11-05T15:45:35.146Z,1.67
2017-11-05T15:48:06.133Z,0.80
2017-11-05T15:50:37.556Z,1.00
2017-11-05T15:53:09.142Z,0.60
2017-11-05T15:55:40.341Z,0.98
2017-11-05T15:58:12.111Z,0.50
2017-11-05T16:00:44.284Z,0.50
2017-11-05T16:03:16.096Z,1.20
2017-11-05T16:05:47.688Z,0.60
2017-11-05T16:08:26.266Z,0.90
2017-11-05T16:11:01.765Z,1.10
2017-11-05T16:13:34.379Z,1.20
2017-11-05T16:16:07.580Z,0.60
2017-11-05T16:18:38.881Z,0.90
2017-11-05T16:21:10.132Z,1.00
2017-11-05T16:23:41.838Z,0.90
2017-11-05T16:26:12.989Z,0.80
2017-11-05T16:28:47.295Z,0.80
2017-11-05T16:31:19.219Z,0.90
2017-11-05T16:33:50.200Z,0.98
2017-11-05T16:36:21.379Z,0.50
2017-11-05T16:38:52.413Z,0.60
2017-11-05T16:41:24.001Z,0.60
2017-11-05T16:43:55.301Z,1.00
2017-11-05T16:46:26.429Z,1.40
2017-11-05T16:48:58.909Z,0.70
2017-11-05T16:51:32.156Z,0.50
2017-11-05T16:54:03.562Z,0.70
2017-11-05T16:56:34.427Z,0.80
2017-11-05T16:59:06.341Z,0.70
2017-11-05T17:01:37.460Z,0.50
2017-11-05T17:04:08.616Z,0.30
2017-11-05T17:06:39.716Z,0.50
2017-11-05T17:09:10.633Z,0.60
2017-11-05T17:11:41.827Z,0.50
2017-11-05T17:14:13.243Z,0.40
2017-11-05T17:16:45.582Z,0.40
2017-11-05T17:19:17.561Z,1.00
2017-11-05T17:21:51.530Z,0.70
2017-11-05T17:24:28.957Z,0.50
2017-11-05T17:27:01.407Z,0.50
2017-11-05T17:29:33.053Z,0.70
2017-11-05T17:32:04.107Z,0.80
2017-11-05T17:34:35.035Z,0.80
2017-11-05T17:37:06.148Z,0.60
2017-11-05T17:39:42.642Z,0.55
2017-11-05T17:42:13.779Z,0.50
2017-11-05T17:44:44.863Z,0.60
2017-11-05T17:47:16.786Z,0.60
2017-11-05T17:49:51.228Z,0.80
2017-11-05T17:52:28.465Z,1.08
2017-11-05T17:55:03.507Z,0.70
2017-11-05T17:57:36.182Z,0.90
2017-11-05T18:00:10.585Z,0.90
2017-11-05T18:02:43.089Z,1.60
2017-11-05T18:05:19.877Z,1.20
2017-11-05T18:07:56.904Z,2.90
2017-11-05T18:10:29.574Z,2.83
2017-11-05T18:13:00.854Z,2.30
2017-11-05T18:15:33.003Z,1.62
2017-11-05T18:18:04.194Z,1.97
2017-11-05T18:20:35.325Z,1.50
2017-11-05T18:23:08.234Z,2.83
2017-11-05T18:25:41.150Z,1.60
2017-11-05T18:28:14.163Z,1.90
2017-11-05T18:30:47.019Z,2.20
2017-11-05T18:33:19.223Z,2.10
2017-11-05T18:35:51.951Z,2.47
2017-11-05T18:38:24.802Z,3.42
2017-11-05T18:40:58.253Z,2.50
2017-11-05T18:43:31.053Z,2.00
2017-11-05T18:46:05.307Z,1.90
2017-11-05T18:48:36.699Z,1.83
2017-11-05T18:51:08.935Z,1.20
2017-11-05T18:53:41.666Z,1.20
2017-11-05T18:56:14.973Z,1.30
2017-11-05T18:58:47.090Z,1.20
2017-11-05T19:01:19.490Z,1.00
2017-11-05T19:03:50.898Z,1.40
2017-11-05T19:06:24.068Z,0.90
2017-11-05T19:08:55.400Z,0.80
2017-11-05T19:11:27.845Z,0.95
2017-11-05T19:13:59.990Z,1.70
2017-11-05T19:16:31.853Z,1.20
2017-11-05T19:19:04.126Z,0.70
2017-11-05T19:21:36.186Z,0.60
2017-11-05T19:24:13.549Z,0.80
2017-11-05T19:27:29.427Z,0.60
2017-11-05T19:30:04.316Z,0.70
2017-11-05T19:32:37.383Z,0.90
2017-11-05T19:35:09.190Z,0.90
2017-11-05T19:37:41.982Z,1.00
2017-11-05T19:40:14.624Z,1.10
2017-11-05T19:42:46.168Z,0.80
2017-11-05T19:45:21.394Z,0.68
2017-11-05T19:47:58.360Z,1.00
2017-11-05T19:50:30.872Z,0.80
2017-11-05T19:53:04.880Z,0.80
2017-11-05T19:55:36.717Z,0.70
2017-11-05T19:58:08.774Z,0.80
2017-11-05T20:00:41.334Z,0.40
2017-11-05T20:03:14.077Z,0.65
2017-11-05T20:05:45.766Z,0.70
2017-11-05T20:08:18.457Z,1.10
2017-11-05T20:10:55.371Z,0.70
2017-11-05T20:13:29.311Z,0.60
2017-11-05T20:16:03.124Z,0.70
2017-11-05T20:18:34.938Z,0.60
2017-11-05T20:24:59.991Z,0.50
2017-11-05T20:27:34.364Z,0.60
2017-11-05T20:30:06.807Z,0.50
2017-11-05T20:32:39.058Z,0.50
2017-11-05T20:35:10.752Z,0.60
2017-11-05T20:37:43.452Z,0.52
2017-11-05T20:40:15.257Z,0.50
2017-11-05T20:44:10.733Z,0.60
2017-11-05T20:46:42.367Z,0.40
2017-11-05T20:49:13.366Z,1.00
2017-11-05T20:51:44.981Z,0.80
2017-11-05T20:54:16.141Z,1.40
2017-11-05T20:56:47.892Z,1.40
2017-11-05T20:59:20.798Z,1.02
2017-11-05T21:01:54.426Z,0.70
2017-11-05T21:04:26.367Z,0.40
2017-11-05T21:06:59.124Z,0.60
2017-11-05T21:09:30.348Z,0.40
2017-11-05T21:12:32.646Z,0.30
2017-11-05T21:15:06.520Z,0.40
2017-11-05T21:17:40.049Z,0.40
2017-11-05T21:20:11.530Z,0.30
2017-11-05T21:22:42.904Z,0.30
2017-11-05T21:25:14.296Z,0.40
2017-11-05T21:27:46.513Z,0.60
2017-11-05T21:30:19.056Z,0.50
2017-11-05T21:32:50.915Z,0.60
2017-11-05T21:35:25.677Z,0.50
2017-11-05T21:38:07.292Z,0.40
2017-11-05T21:40:46.480Z,0.50
2017-11-05T21:43:18.163Z,0.40
2017-11-05T21:45:49.581Z,0.40
2017-11-05T21:48:21.126Z,0.50
2017-11-05T21:50:52.838Z,0.40
2017-11-05T21:53:24.364Z,0.50
2017-11-05T21:55:55.816Z,0.50
2017-11-05T21:58:28.785Z,0.50
2017-11-05T22:01:03.926Z,0.50
2017-11-05T22:03:36.570Z,0.57
2017-11-05T22:06:09.043Z,0.40
2017-11-05T22:08:41.918Z,1.03
2017-11-05T22:11:13.465Z,3.10
2017-11-05T22:13:44.855Z,1.90
2017-11-05T22:16:17.024Z,1.45
2017-11-05T22:18:48.844Z,0.80
2017-11-05T22:21:19.753Z,0.60
2017-11-05T22:23:51.415Z,0.57
2017-11-05T22:26:23.971Z,0.40
2017-11-05T22:28:55.737Z,0.50
2017-11-05T22:31:27.616Z,0.30
2017-11-05T22:33:59.076Z,0.50
2017-11-05T22:36:30.417Z,0.60
2017-11-05T22:39:02.051Z,0.62
2017-11-05T22:41:32.913Z,0.60
2017-11-05T22:44:04.654Z,0.68
2017-11-05T22:46:37.270Z,0.70
2017-11-05T22:49:08.520Z,0.60
2017-11-05T22:51:40.199Z,0.60
2017-11-05T23:07:02.992Z,0.60
2017-11-05T23:09:35.535Z,0.40
2017-11-05T23:12:06.989Z,0.40
2017-11-05T23:14:38.056Z,0.40
2017-11-05T23:17:09.255Z,0.30
2017-11-05T23:19:40.684Z,0.30
2017-11-05T23:22:12.204Z,0.40
